Time;durP1;ratioP1;P1;durP2;ratioP2;P2;SDS_P1;SDS_P2;PMS_P1;PMS_P2;Temp;Humidity;BMP_temperature;BMP_pressure;BME280_temperature;BME280_humidity;BME280_pressure;Samples;Min_cycle;Max_cycle;Signal;HPM_P1;HPM_P2
2021/03/23 00:01:48;;;;;;;2.67;1.50;;;;;;;4.70;78.52;101734.33;113206;1209;64374;-78
2021/03/23 00:04:15;;;;;;;3.57;1.20;;;;;;;4.72;78.38;101736.83;113160;1209;64374;-78
2021/03/23 00:06:42;;;;;;;2.97;1.03;;;;;;;4.70;78.04;101724.64;113192;1209;64413;-78
2021/03/23 00:09:08;;;;;;;3.33;1.03;;;;;;;4.72;78.26;101729.80;113153;1209;65713;-78
2021/03/23 00:11:40;;;;;;;4.85;1.95;;;;;;;4.74;78.40;101729.66;112852;1209;64841;-78
2021/03/23 00:14:11;;;;;;;4.30;1.60;;;;;;;4.75;77.48;101734.82;113211;1209;64500;-78
2021/03/23 00:16:41;;;;;;;5.20;1.37;;;;;;;4.76;77.93;101725.14;113180;1209;64593;-78
2021/03/23 00:19:11;;;;;;;5.37;1.23;;;;;;;4.76;78.19;101723.38;112991;1209;64758;-77
2021/03/23 00:21:38;;;;;;;4.70;1.30;;;;;;;4.75;78.03;101724.31;113238;1209;64359;-78
2021/03/23 00:24:05;;;;;;;4.47;1.03;;;;;;;4.76;78.07;101727.77;113114;1209;64537;-78
2021/03/23 00:26:32;;;;;;;2.10;1.13;;;;;;;4.77;77.44;101727.66;113157;1209;65532;-77
2021/03/23 00:28:58;;;;;;;4.65;1.60;;;;;;;4.78;76.38;101724.10;112722;1209;64387;-78
2021/03/23 00:31:29;;;;;;;2.00;0.85;;;;;;;4.78;76.10;101731.13;113118;1209;64435;-77
2021/03/23 00:33:58;;;;;;;4.10;1.30;;;;;;;4.77;76.11;101725.03;113129;1209;64470;-78
2021/03/23 00:36:31;;;;;;;8.23;1.77;;;;;;;4.76;76.61;101723.38;113125;1209;64506;-76
2021/03/23 00:39:00;;;;;;;1.43;0.80;;;;;;;4.74;77.59;101732.30;113043;1209;64493;-78
2021/03/23 00:41:32;;;;;;;2.95;1.20;;;;;;;4.73;77.66;101723.58;113196;1209;64409;-78
2021/03/23 00:43:59;;;;;;;3.87;1.70;;;;;;;4.67;77.73;101726.65;113197;1209;64364;-77
2021/03/23 00:46:26;;;;;;;1.87;0.90;;;;;;;4.64;78.92;101729.52;112804;1209;64467;-78
2021/03/23 00:48:52;;;;;;;2.50;1.60;;;;;;;4.59;79.03;101727.22;113137;1209;64502;-78
2021/03/23 00:51:19;;;;;;;3.90;1.60;;;;;;;4.53;80.32;101726.80;113201;1209;64358;-78
2021/03/23 00:53:46;;;;;;;8.03;2.00;;;;;;;4.47;80.16;101728.92;113077;1209;64372;-80
2021/03/23 00:56:12;;;;;;;4.37;1.90;;;;;;;4.43;80.58;101737.97;113200;1209;64378;-79
2021/03/23 00:58:39;;;;;;;1.97;1.20;;;;;;;4.39;80.42;101731.26;113060;1209;64762;-77
2021/03/23 01:01:05;;;;;;;5.33;1.67;;;;;;;4.37;80.53;101724.44;113062;1209;64624;-78
2021/03/23 01:03:32;;;;;;;2.33;1.20;;;;;;;4.33;80.55;101723.81;113158;1209;64404;-79
2021/03/23 01:05:59;;;;;;;5.10;1.80;;;;;;;4.34;81.03;101732.55;113125;1209;64442;-77
2021/03/23 01:08:25;;;;;;;3.33;1.87;;;;;;;4.34;80.90;101725.50;113023;1209;64502;-79
2021/03/23 01:10:53;;;;;;;5.30;2.23;;;;;;;4.35;80.08;101724.54;113082;1209;64396;-78
2021/03/23 01:13:19;;;;;;;3.25;1.70;;;;;;;4.33;80.63;101715.09;113158;1209;64509;-77
2021/03/23 01:15:46;;;;;;;3.90;2.23;;;;;;;4.32;81.14;101722.14;112999;1209;64442;-78
2021/03/23 01:18:13;;;;;;;5.30;2.17;;;;;;;4.32;80.13;101723.94;113004;1209;64451;-78
2021/03/23 01:20:39;;;;;;;3.57;1.63;;;;;;;4.31;80.54;101717.83;113050;1209;64525;-77
2021/03/23 01:23:06;;;;;;;4.93;2.00;;;;;;;4.33;79.98;101725.61;113048;1209;64370;-77
2021/03/23 01:25:32;;;;;;;4.93;2.17;;;;;;;4.35;80.03;101723.71;112918;1209;64725;-78
2021/03/23 01:27:59;;;;;;;2.95;1.40;;;;;;;4.35;80.39;101719.29;113023;1209;64438;-78
2021/03/23 01:30:27;;;;;;;3.30;1.60;;;;;;;4.34;79.55;101717.63;113093;1209;66409;-78
2021/03/23 01:32:55;;;;;;;7.60;2.57;;;;;;;4.35;79.83;101719.29;113184;1209;64374;-78
2021/03/23 01:35:24;;;;;;;4.10;1.17;;;;;;;4.34;80.08;101715.00;113231;1209;64385;-78
2021/03/23 01:37:50;;;;;;;8.40;2.10;;;;;;;4.35;79.78;101715.83;113320;1209;64464;-79
2021/03/23 01:40:20;;;;;;;3.37;2.00;;;;;;;4.35;79.50;101719.29;113232;1209;65565;-79
2021/03/23 01:42:53;;;;;;;3.37;1.90;;;;;;;4.37;78.99;101720.02;113186;1209;64445;-79
2021/03/23 01:45:25;;;;;;;3.17;1.60;;;;;;;4.38;79.04;101729.59;113595;1209;64361;-79
2021/03/23 01:47:54;;;;;;;3.40;1.80;;;;;;;4.38;79.19;101719.09;113372;1209;64384;-78
2021/03/23 01:50:22;;;;;;;4.55;1.25;;;;;;;4.38;79.69;101723.48;112891;1209;64514;-78
2021/03/23 01:53:13;;;;;;;3.55;1.30;;;;;;;4.41;78.97;101723.27;113088;1209;64323;-78
2021/03/23 01:55:39;;;;;;;4.83;2.20;;;;;;;4.40;80.23;101727.70;113188;1209;64444;-80
2021/03/23 01:58:09;;;;;;;3.50;1.40;;;;;;;4.37;80.61;101720.02;113164;1209;64365;-77
2021/03/23 02:00:36;;;;;;;4.10;0.83;;;;;;;4.35;80.48;101721.08;114783;1209;62965;-78
2021/03/23 02:03:04;;;;;;;5.00;2.97;;;;;;;4.31;80.58;101723.08;113341;1209;64535;-78
2021/03/23 02:05:33;;;;;;;4.25;1.60;;;;;;;4.29;81.23;101720.58;113149;1209;64394;-78
2021/03/23 02:08:02;;;;;;;5.43;2.20;;;;;;;4.26;81.13;101714.70;113642;1209;64457;-78
2021/03/23 02:10:28;;;;;;;4.05;2.20;;;;;;;4.23;81.75;101718.38;113357;1209;64384;-78
2021/03/23 02:12:56;;;;;;;3.90;1.70;;;;;;;4.18;82.60;101714.39;113141;1209;64345;-78
2021/03/23 02:15:25;;;;;;;3.43;1.40;;;;;;;4.13;83.54;101716.52;113188;1209;64454;-78
2021/03/23 02:18:26;;;;;;;5.73;1.80;;;;;;;4.09;83.30;101714.09;113329;1209;64431;-79
2021/03/23 02:21:09;;;;;;;5.83;1.90;;;;;;;4.07;82.77;101715.98;113118;1209;64480;-78
2021/03/23 02:23:38;;;;;;;6.87;2.27;;;;;;;4.07;82.79;101712.53;113169;1209;64336;-78
2021/03/23 02:26:09;;;;;;;6.13;1.47;;;;;;;4.05;83.68;101719.67;113220;1209;64307;-79
2021/03/23 02:28:42;;;;;;;4.73;1.63;;;;;;;4.03;83.54;101724.19;113026;1209;64538;-79
2021/03/23 02:31:08;;;;;;;4.95;1.20;;;;;;;4.00;83.18;101725.25;113147;1209;64429;-77
2021/03/23 02:33:35;;;;;;;4.67;1.57;;;;;;;4.01;83.17;101720.83;113062;1209;64314;-77
2021/03/23 02:36:02;;;;;;;9.65;2.00;;;;;;;4.00;83.10;101720.00;113120;1209;64348;-78
2021/03/23 02:38:31;;;;;;;7.07;1.40;;;;;;;4.00;83.61;101712.13;113018;1209;64317;-77
2021/03/23 02:40:58;;;;;;;6.80;1.40;;;;;;;4.00;82.77;101703.41;113041;1209;64422;-78
2021/03/23 02:43:24;;;;;;;12.90;2.10;;;;;;;3.99;83.09;101706.97;113070;1209;64310;-79
2021/03/23 02:45:55;;;;;;;3.67;1.37;;;;;;;3.98;82.95;101718.43;113127;1209;64404;-77
2021/03/23 02:48:22;;;;;;;4.37;1.30;;;;;;;3.98;82.81;101708.77;113317;1209;64474;-77
2021/03/23 02:50:49;;;;;;;2.43;1.00;;;;;;;4.00;82.67;101708.66;113113;1209;64407;-78
2021/03/23 02:53:15;;;;;;;2.43;1.10;;;;;;;4.01;81.92;101711.16;113079;1209;64393;-78
2021/03/23 02:55:44;;;;;;;4.20;1.53;;;;;;;4.03;82.47;101709.27;113170;1209;64496;-79
2021/03/23 02:58:11;;;;;;;3.37;1.93;;;;;;;4.04;81.92;101707.50;113147;1209;64413;-80
2021/03/23 03:00:39;;;;;;;6.27;1.80;;;;;;;4.03;82.26;101709.27;112865;1209;64458;-79
2021/03/23 03:03:06;;;;;;;3.07;1.03;;;;;;;4.03;81.85;101701.39;113243;1209;64384;-78
2021/03/23 03:05:52;;;;;;;3.63;1.45;;;;;;;4.05;81.36;101699.50;113150;1209;64419;-78
2021/03/23 03:08:20;;;;;;;4.63;1.57;;;;;;;4.05;81.95;101706.54;113021;1209;64464;-77
2021/03/23 03:10:48;;;;;;;2.00;1.30;;;;;;;4.05;82.06;101696.88;113052;1209;64375;-78
2021/03/23 03:13:16;;;;;;;4.85;1.15;;;;;;;4.06;81.53;101703.81;113023;1209;64256;-78
2021/03/23 03:15:42;;;;;;;4.30;1.50;;;;;;;4.06;81.10;101705.61;113029;1209;64355;-79
2021/03/23 03:18:09;;;;;;;2.50;1.27;;;;;;;4.06;80.86;101716.11;113017;1209;64567;-77
2021/03/23 03:20:36;;;;;;;4.05;1.40;;;;;;;4.07;81.22;101715.98;113113;1209;64377;-78
2021/03/23 03:23:03;;;;;;;3.43;1.67;;;;;;;4.08;80.59;101712.42;113027;1209;64384;-77
2021/03/23 03:25:32;;;;;;;2.37;1.03;;;;;;;4.09;80.83;101711.47;113036;1209;64841;-77
2021/03/23 03:27:59;;;;;;;5.07;1.90;;;;;;;4.11;81.06;101721.87;113071;1209;64394;-78
2021/03/23 03:30:38;;;;;;;4.07;1.80;;;;;;;4.11;80.42;101721.87;113164;1209;64525;-79
2021/03/23 03:33:07;;;;;;;6.10;2.20;;;;;;;4.13;80.41;101719.98;113058;1209;64435;-78
2021/03/23 03:35:37;;;;;;;4.00;1.80;;;;;;;4.16;80.23;101729.42;113193;1209;64406;-78
2021/03/23 03:38:05;;;;;;;6.60;1.90;;;;;;;4.19;80.10;101718.72;113263;1209;64362;-78
2021/03/23 03:40:39;;;;;;;5.00;1.95;;;;;;;4.19;79.66;101716.09;113104;1209;64314;-77
2021/03/23 03:43:06;;;;;;;6.17;1.57;;;;;;;4.20;80.56;101720.38;113016;1209;64500;-79
2021/03/23 03:45:33;;;;;;;2.97;1.70;;;;;;;4.20;79.75;101720.38;113035;1209;65656;-78
2021/03/23 03:48:00;;;;;;;7.70;2.10;;;;;;;4.21;80.19;101716.83;112962;1209;64355;-77
2021/03/23 03:50:28;;;;;;;5.33;2.30;;;;;;;4.23;80.25;101721.02;113070;1209;64317;-80
2021/03/23 03:52:58;;;;;;;5.40;2.40;;;;;;;4.27;80.22;101726.87;113151;1209;64908;-78
2021/03/23 03:55:29;;;;;;;3.13;1.53;;;;;;;4.27;79.70;101725.11;113091;1209;64368;-78
2021/03/23 03:57:56;;;;;;;3.47;1.97;;;;;;;4.29;80.05;101730.23;113251;1209;64422;-79
2021/03/23 04:00:25;;;;;;;3.90;2.07;;;;;;;4.29;80.09;101727.59;113151;1209;64412;-79
2021/03/23 04:02:52;;;;;;;3.77;1.80;;;;;;;4.29;79.50;101724.97;113260;1209;64448;-79
2021/03/23 04:05:26;;;;;;;3.37;1.73;;;;;;;4.29;79.77;101724.97;113137;1209;64700;-79
2021/03/23 04:07:53;;;;;;;10.63;2.55;;;;;;;4.28;79.70;101726.77;113485;1209;64487;-80
2021/03/23 04:10:20;;;;;;;9.25;3.45;;;;;;;4.31;79.81;101722.25;113270;1209;64451;-79
2021/03/23 04:12:48;;;;;;;6.25;2.05;;;;;;;4.31;79.60;101725.70;114446;1209;64387;-80
2021/03/23 04:15:43;;;;;;;5.00;2.50;;;;;;;4.32;80.05;101719.52;113217;1209;64505;-79
2021/03/23 04:18:11;;;;;;;3.70;1.83;;;;;;;4.32;79.09;101727.40;113120;1209;64377;-78
2021/03/23 04:20:39;;;;;;;6.80;2.00;;;;;;;4.33;80.06;101725.61;113214;1209;64442;-79
2021/03/23 04:23:08;;;;;;;15.00;2.40;;;;;;;4.33;80.07;101725.61;113169;1209;64392;-80
2021/03/23 04:25:35;;;;;;;8.43;2.50;;;;;;;4.32;79.72;101729.19;113306;1209;64375;-79
2021/03/23 04:28:02;;;;;;;2.63;1.30;;;;;;;4.31;80.06;101733.58;113218;1209;64409;-79
2021/03/23 04:30:30;;;;;;;8.17;2.83;;;;;;;4.32;79.28;101740.53;113178;1209;64484;-79
2021/03/23 04:32:59;;;;;;;7.03;2.00;;;;;;;4.31;79.96;101728.33;113259;1209;64359;-77
2021/03/23 04:35:36;;;;;;;8.60;2.30;;;;;;;4.30;80.20;101731.92;113233;1209;64400;-79
2021/03/23 04:38:02;;;;;;;6.40;2.85;;;;;;;4.27;80.12;101729.49;113451;1209;64452;-79
2021/03/23 04:40:29;;;;;;;5.73;2.10;;;;;;;4.27;80.21;101742.63;113236;1209;64451;-80
2021/03/23 04:42:55;;;;;;;4.40;2.30;;;;;;;4.28;80.62;101731.19;113103;1209;64441;-78
2021/03/23 04:45:22;;;;;;;8.63;4.33;;;;;;;4.28;80.38;101731.19;113159;1209;64419;-79
2021/03/23 04:47:49;;;;;;;5.00;3.13;;;;;;;4.30;80.82;101734.55;113154;1209;65301;-80
2021/03/23 04:50:17;;;;;;;7.65;2.95;;;;;;;4.32;80.37;101744.95;113131;1209;64361;-79
2021/03/23 04:52:45;;;;;;;17.93;2.70;;;;;;;4.32;80.23;101740.53;113173;1209;64432;-79
2021/03/23 04:55:12;;;;;;;7.17;2.83;;;;;;;4.33;80.28;101736.94;113103;1209;64309;-80
2021/03/23 04:57:39;;;;;;;5.90;2.57;;;;;;;4.33;80.94;101742.20;113203;1209;64371;-79
2021/03/23 05:00:08;;;;;;;6.15;2.50;;;;;;;4.31;80.91;101741.47;113148;1209;64448;-79
2021/03/23 05:02:35;;;;;;;4.63;2.17;;;;;;;4.31;81.19;101751.97;113391;1209;64336;-79
2021/03/23 05:05:02;;;;;;;5.80;3.20;;;;;;;4.32;80.96;101753.67;113225;1209;64483;-81
2021/03/23 05:07:28;;;;;;;6.37;2.80;;;;;;;4.33;81.12;101757.13;113054;1209;64467;-77
2021/03/23 05:09:55;;;;;;;8.60;4.70;;;;;;;4.33;80.83;101757.95;113028;1209;64953;-79
2021/03/23 05:12:21;;;;;;;5.20;2.53;;;;;;;4.34;80.83;101758.82;113071;1209;64448;-77
2021/03/23 05:14:48;;;;;;;10.93;3.20;;;;;;;4.33;80.88;101760.58;112940;1209;64397;-77
2021/03/23 05:17:16;;;;;;;7.07;3.10;;;;;;;4.32;81.21;101766.80;112986;1209;64753;-77
2021/03/23 05:19:43;;;;;;;5.33;3.00;;;;;;;4.33;80.84;101767.63;113085;1209;64426;-78
2021/03/23 05:22:10;;;;;;;6.60;2.93;;;;;;;4.33;81.24;101773.72;113075;1209;64506;-78
2021/03/23 05:24:36;;;;;;;6.50;2.65;;;;;;;4.34;80.69;101775.41;113236;1209;64493;-78
2021/03/23 05:27:04;;;;;;;10.87;3.70;;;;;;;4.35;80.02;101766.57;113075;1209;64371;-79
2021/03/23 05:29:31;;;;;;;12.60;4.57;;;;;;;4.35;79.88;101766.57;113113;1209;64483;-79
2021/03/23 05:31:57;;;;;;;9.60;3.13;;;;;;;4.36;80.63;101763.02;113024;1209;64386;-77
2021/03/23 05:34:24;;;;;;;6.33;2.70;;;;;;;4.35;79.92;101771.83;113057;1209;64509;-77
2021/03/23 05:36:51;;;;;;;7.00;2.00;;;;;;;4.36;78.98;101772.69;113133;1209;64368;-78
2021/03/23 05:39:17;;;;;;;6.27;2.27;;;;;;;4.37;78.85;101774.36;113021;1209;64362;-77
2021/03/23 05:41:55;;;;;;;6.20;2.77;;;;;;;4.38;79.73;101783.89;113027;1209;64404;-77
2021/03/23 05:44:40;;;;;;;7.23;3.00;;;;;;;4.39;79.41;101783.80;113259;1209;64470;-78
2021/03/23 05:47:12;;;;;;;9.25;2.83;;;;;;;4.41;79.31;101787.16;113116;1209;64407;-76
2021/03/23 05:49:51;;;;;;;4.00;2.67;;;;;;;4.43;79.48;101787.06;113230;1209;64439;-78
2021/03/23 05:52:37;;;;;;;6.30;3.07;;;;;;;4.41;79.44;101779.28;113080;1209;65469;-77
2021/03/23 05:55:33;;;;;;;8.00;3.30;;;;;;;4.42;78.96;101778.34;113124;1209;64304;-77
2021/03/23 05:58:01;;;;;;;6.35;3.10;;;;;;;4.44;78.73;101771.20;113041;1209;64426;-79
2021/03/23 06:00:32;;;;;;;3.50;2.13;;;;;;;4.44;78.73;101765.94;113007;1209;65325;-77
2021/03/23 06:03:31;;;;;;;7.47;2.47;;;;;;;4.46;78.64;101769.30;112952;1209;64362;-77
2021/03/23 06:06:04;;;;;;;6.03;3.00;;;;;;;4.45;78.66;101772.86;112943;1209;64352;-76
2021/03/23 06:08:36;;;;;;;6.53;3.03;;;;;;;4.45;79.13;101780.74;112930;1209;64362;-75
2021/03/23 06:11:06;;;;;;;5.20;2.87;;;;;;;4.46;78.78;101773.69;113041;1209;64384;-75
2021/03/23 06:13:41;;;;;;;6.70;2.90;;;;;;;4.48;78.96;101771.80;113107;1209;64548;-77
2021/03/23 06:16:34;;;;;;;5.55;3.15;;;;;;;4.48;78.71;101767.41;113036;1209;64373;-76
2021/03/23 06:19:31;;;;;;;9.50;3.07;;;;;;;4.52;78.99;101761.92;113070;1209;64352;-76
2021/03/23 06:22:27;;;;;;;5.97;2.40;;;;;;;4.53;77.58;101763.58;112961;1209;64402;-74
2021/03/23 06:25:20;;;;;;;5.70;3.00;;;;;;;4.55;77.47;101751.17;112858;1209;65663;-76
2021/03/23 06:27:52;;;;;;;5.50;2.70;;;;;;;4.58;77.83;101751.80;112937;1209;64480;-75
2021/03/23 06:30:21;;;;;;;8.00;2.83;;;;;;;4.62;77.50;101749.80;112924;1209;64480;-77
2021/03/23 06:32:53;;;;;;;7.35;3.30;;;;;;;4.64;78.19;101746.11;112973;1209;64341;-76
2021/03/23 06:35:29;;;;;;;5.53;2.67;;;;;;;4.66;77.98;101752.10;113039;1209;64410;-76
2021/03/23 06:37:56;;;;;;;4.30;1.45;;;;;;;4.66;78.27;101749.47;112924;1209;64740;-75
2021/03/23 06:40:27;;;;;;;8.83;2.67;;;;;;;4.66;79.10;101753.89;112913;1209;64425;-76
2021/03/23 06:42:57;;;;;;;5.90;3.00;;;;;;;4.66;78.86;101753.89;112917;1209;64499;-76
2021/03/23 06:45:28;;;;;;;6.93;1.93;;;;;;;4.65;78.72;101758.32;113686;1209;64304;-75
2021/03/23 06:48:18;;;;;;;8.87;3.50;;;;;;;4.68;79.20;101757.25;112918;1209;64333;-76
2021/03/23 06:50:46;;;;;;;3.80;1.77;;;;;;;4.70;78.83;101739.59;112914;1209;64377;-75
2021/03/23 06:53:19;;;;;;;5.60;2.60;;;;;;;4.73;78.89;101749.03;112941;1209;64486;-75
2021/03/23 06:55:48;;;;;;;6.75;2.60;;;;;;;4.73;78.69;101747.23;112867;1209;64378;-75
2021/03/23 06:58:34;;;;;;;7.83;3.00;;;;;;;4.78;79.20;101742.50;113033;1209;64452;-76
2021/03/23 07:01:15;;;;;;;5.53;2.50;;;;;;;4.80;78.75;101745.00;112990;1209;64486;-77
2021/03/23 07:03:51;;;;;;;5.33;2.13;;;;;;;4.80;78.09;101743.23;112910;1209;64477;-76
2021/03/23 07:06:22;;;;;;;6.90;2.65;;;;;;;4.86;78.11;101749.81;112900;1209;64387;-73
2021/03/23 07:09:20;;;;;;;4.50;2.40;;;;;;;4.90;78.04;101746.01;112972;1209;64476;-74
2021/03/23 07:11:50;;;;;;;2.47;1.23;;;;;;;4.92;78.35;101749.37;113069;1209;64317;-77
2021/03/23 07:14:29;;;;;;;8.45;3.45;;;;;;;4.98;77.48;101748.09;112912;1209;64359;-76
2021/03/23 07:17:05;;;;;;;6.80;2.80;;;;;;;5.01;77.21;101751.31;112969;1209;64352;-75
2021/03/23 07:19:46;;;;;;;3.10;2.10;;;;;;;5.04;77.02;101751.11;113087;1209;64697;-77
2021/03/23 07:22:25;;;;;;;3.90;2.30;;;;;;;5.05;77.74;101751.94;112955;1209;64443;-76
2021/03/23 07:24:55;;;;;;;6.70;2.00;;;;;;;5.09;76.78;101758.66;112968;1209;64416;-75
2021/03/23 07:27:25;;;;;;;5.00;2.60;;;;;;;5.14;76.58;101751.25;113057;1209;64327;-76
2021/03/23 07:30:22;;;;;;;5.50;2.70;;;;;;;5.20;76.74;101748.16;113177;1209;64416;-80
2021/03/23 07:32:54;;;;;;;6.27;3.03;;;;;;;5.25;76.71;101764.47;113209;1209;65435;-79
2021/03/23 07:35:31;;;;;;;5.25;2.55;;;;;;;5.28;76.03;101766.85;113263;1209;64365;-79
2021/03/23 07:38:28;;;;;;;2.43;1.60;;;;;;;5.31;75.79;101768.41;113088;1209;64815;-78
2021/03/23 07:40:57;;;;;;;3.17;1.50;;;;;;;5.38;74.15;101766.19;113176;1209;64381;-78
2021/03/23 07:43:50;;;;;;;3.43;1.87;;;;;;;5.46;74.69;101769.92;113203;1209;64371;-77
2021/03/23 07:46:38;;;;;;;3.90;2.03;;;;;;;5.56;73.88;101759.52;113171;1209;64549;-79
2021/03/23 07:49:31;;;;;;;4.53;2.13;;;;;;;5.67;73.48;101779.77;113460;1209;64364;-77
2021/03/23 07:52:30;;;;;;;5.55;2.00;;;;;;;5.65;72.12;101774.64;113122;1209;64365;-78
2021/03/23 07:54:59;;;;;;;4.50;2.10;;;;;;;5.69;72.62;101778.69;113048;1209;64371;-75
2021/03/23 07:58:04;;;;;;;5.53;2.27;;;;;;;5.73;71.99;101772.23;113262;1209;64343;-75
2021/03/23 08:00:37;;;;;;;4.07;1.80;;;;;;;5.83;72.19;101774.19;113035;1209;64343;-78
2021/03/23 08:03:16;;;;;;;9.40;2.20;;;;;;;5.89;71.17;101771.09;113100;1209;64438;-78
2021/03/23 08:06:08;;;;;;;4.57;2.00;;;;;;;5.96;71.16;101771.48;113275;1209;64368;-78
2021/03/23 08:08:51;;;;;;;4.90;2.57;;;;;;;6.09;71.85;101777.47;113217;1209;64383;-78
2021/03/23 08:11:33;;;;;;;3.50;2.00;;;;;;;6.20;70.27;101771.36;114304;1209;64346;-78
2021/03/23 08:14:18;;;;;;;4.10;2.27;;;;;;;6.23;69.88;101779.05;113174;1209;64618;-78
2021/03/23 08:16:57;;;;;;;;;;;;;;;6.23;69.40;101769.34;113549;1217;64416;-79
2021/03/23 08:19:59;;;;;;;5.10;2.03;;;;;;;6.27;69.17;101767.31;113420;1209;64489;-77
2021/03/23 08:23:08;;;;;;;4.97;3.07;;;;;;;6.34;68.89;101776.40;113044;1209;64359;-77
2021/03/23 08:25:59;;;;;;;5.57;2.50;;;;;;;6.44;68.05;101771.22;113116;1209;64346;-77
2021/03/23 08:28:56;;;;;;;5.90;2.65;;;;;;;6.49;67.54;101775.18;113121;1209;64422;-79
2021/03/23 08:31:55;;;;;;;4.13;2.23;;;;;;;6.51;67.18;101778.53;113054;1209;64367;-77
2021/03/23 08:34:35;;;;;;;4.57;1.77;;;;;;;6.49;66.71;101775.18;113069;1209;64474;-77
2021/03/23 08:37:28;;;;;;;5.63;2.27;;;;;;;6.48;66.93;101784.06;114322;1209;64390;-77
2021/03/23 08:40:32;;;;;;;6.00;2.73;;;;;;;6.46;67.21;101778.07;113061;1209;64833;-77
2021/03/23 08:42:59;;;;;;;5.03;2.10;;;;;;;6.45;66.37;101779.02;113509;1209;64371;-78
2021/03/23 08:45:30;;;;;;;4.53;2.70;;;;;;;6.45;67.13;101779.02;113361;1209;64311;-81
2021/03/23 08:48:16;;;;;;;5.15;2.25;;;;;;;6.50;67.31;101776.02;113510;1209;63819;-80
2021/03/23 08:50:45;;;;;;;6.47;2.53;;;;;;;6.60;67.22;101784.04;113708;1209;64429;-80
2021/03/23 08:53:36;;;;;;;10.00;2.23;;;;;;;6.65;66.82;101787.13;113491;1209;64361;-78
2021/03/23 08:56:05;;;;;;;8.17;2.67;;;;;;;6.67;66.02;101793.13;113296;1209;64567;-77
2021/03/23 08:58:38;;;;;;;5.17;2.53;;;;;;;6.67;65.83;101782.58;113288;1209;64384;-78
2021/03/23 09:01:25;;;;;;;9.70;3.65;;;;;;;6.69;65.48;101780.66;113252;1209;64419;-76
2021/03/23 09:04:11;;;;;;;7.70;2.30;;;;;;;6.73;65.54;101772.38;113089;1209;64432;-76
2021/03/23 09:06:53;;;;;;;3.30;2.00;;;;;;;6.76;65.10;101786.27;113027;1209;64374;-77
2021/03/23 09:09:27;;;;;;;5.53;2.13;;;;;;;6.76;64.86;101779.22;113045;1209;64471;-75
2021/03/23 09:12:40;;;;;;;4.07;2.90;;;;;;;6.80;64.87;101778.02;113088;1209;64442;-76
2021/03/23 09:15:16;;;;;;;4.80;2.00;;;;;;;6.83;64.55;101783.03;113055;1209;64391;-76
2021/03/23 09:18:14;;;;;;;8.80;3.83;;;;;;;6.88;64.51;101787.93;113638;1209;64442;-77
2021/03/23 09:20:41;;;;;;;5.27;2.47;;;;;;;6.92;64.71;101784.91;113001;1209;64597;-74
2021/03/23 09:23:35;;;;;;;5.53;3.70;;;;;;;6.98;64.56;101796.78;113018;1209;64521;-76
2021/03/23 09:26:24;;;;;;;4.73;2.17;;;;;;;6.99;63.53;101792.34;113105;1209;64394;-77
2021/03/23 09:28:54;;;;;;;7.47;2.30;;;;;;;7.03;63.03;101788.48;113463;1209;64876;-77
2021/03/23 09:31:46;;;;;;;6.50;3.00;;;;;;;7.05;63.64;101779.48;113194;1209;64413;-78
2021/03/23 09:34:51;;;;;;;6.95;3.05;;;;;;;7.14;63.37;101770.00;113052;1209;64409;-78
2021/03/23 09:37:47;;;;;;;7.50;3.90;;;;;;;7.25;62.98;101777.86;113330;1209;64528;-79
2021/03/23 09:40:41;;;;;;;11.13;3.67;;;;;;;7.25;63.01;101771.75;113550;1209;64451;-78
2021/03/23 09:43:27;;;;;;;9.43;2.83;;;;;;;7.28;62.17;101771.48;113486;1209;64314;-80
2021/03/23 09:45:57;;;;;;;9.43;3.13;;;;;;;7.35;62.68;101783.20;113518;1209;64375;-80
2021/03/23 09:48:46;;;;;;;6.37;3.33;;;;;;;7.40;62.43;101774.92;113501;1209;64755;-81
2021/03/23 09:51:32;;;;;;;7.70;3.43;;;;;;;7.45;62.13;101763.00;113381;1209;64902;-80
2021/03/23 09:53:59;;;;;;;8.20;3.50;;;;;;;7.50;62.40;101755.55;113156;1209;64387;-79
2021/03/23 09:56:37;;;;;;;7.63;3.30;;;;;;;7.55;62.59;101760.44;113381;1209;64458;-77
2021/03/23 09:59:12;;;;;;;8.87;4.10;;;;;;;7.55;62.01;101763.08;113434;1209;64477;-78
2021/03/23 10:01:56;;;;;;;7.67;4.10;;;;;;;7.62;62.49;101766.86;113279;1209;64381;-79
2021/03/23 10:04:29;;;;;;;14.38;4.13;;;;;;;7.67;62.47;101764.69;113246;1209;64326;-80
2021/03/23 10:06:57;;;;;;;9.60;4.80;;;;;;;7.67;61.67;101767.33;113358;1209;64464;-77
2021/03/23 10:09:31;;;;;;;9.87;4.40;;;;;;;7.72;61.91;101770.41;113149;1209;64378;-79
2021/03/23 10:11:59;;;;;;;8.43;4.40;;;;;;;7.74;61.53;101779.04;113412;1209;64470;-79
2021/03/23 10:14:28;;;;;;;10.77;4.10;;;;;;;7.80;61.96;101771.55;113385;1209;64336;-80
2021/03/23 10:17:26;;;;;;;9.80;4.47;;;;;;;7.82;61.91;101766.98;113495;1209;64448;-81
2021/03/23 10:20:00;;;;;;;8.27;4.27;;;;;;;7.78;61.01;101773.48;113589;1209;64339;-79
2021/03/23 10:22:34;;;;;;;11.50;5.00;;;;;;;7.80;61.67;101774.19;113572;1209;64349;-78
2021/03/23 10:25:06;;;;;;;15.87;5.53;;;;;;;7.86;61.79;101771.03;113490;1209;64450;-79
2021/03/23 10:27:38;;;;;;;11.30;4.43;;;;;;;7.89;61.75;101781.36;113564;1209;64429;-80
2021/03/23 10:30:13;;;;;;;8.50;4.47;;;;;;;7.90;61.34;101783.84;113392;1209;64445;-81
2021/03/23 10:32:51;;;;;;;8.90;3.40;;;;;;;7.89;61.34;101786.64;113508;1209;64388;-80
2021/03/23 10:35:37;;;;;;;11.37;6.03;;;;;;;7.96;61.42;101780.69;113539;1209;64462;-81
2021/03/23 10:38:36;;;;;;;10.43;5.07;;;;;;;8.00;61.33;101794.48;113383;1209;64320;-80
2021/03/23 10:41:20;;;;;;;10.73;5.23;;;;;;;7.95;61.02;101802.80;113740;1209;64442;-77
2021/03/23 10:43:50;;;;;;;9.50;5.00;;;;;;;7.93;61.09;101790.70;113192;1209;64403;-78
2021/03/23 10:46:42;;;;;;;10.30;5.55;;;;;;;7.87;60.65;101797.33;113261;1209;64326;-76
2021/03/23 10:49:29;;;;;;;13.57;5.37;;;;;;;7.93;61.38;101788.05;113126;1209;64394;-77
2021/03/23 10:51:58;;;;;;;8.60;5.30;;;;;;;7.97;60.99;101789.47;113141;1209;64400;-78
2021/03/23 10:54:30;;;;;;;11.00;5.17;;;;;;;8.02;61.54;101787.26;113147;1209;65665;-77
2021/03/23 10:57:26;;;;;;;8.35;3.50;;;;;;;8.03;61.21;101793.38;113043;1209;64525;-77
2021/03/23 10:59:54;;;;;;;13.13;6.20;;;;;;;8.07;61.51;101790.33;113769;1209;64387;-79
2021/03/23 11:02:28;;;;;;;9.25;5.85;;;;;;;8.13;61.38;101783.69;113619;1209;64336;-79
2021/03/23 11:04:59;;;;;;;13.20;6.00;;;;;;;8.16;61.14;101791.38;113512;1209;63526;-80
2021/03/23 11:07:31;;;;;;;12.27;5.33;;;;;;;8.20;61.24;101791.92;113545;1209;64413;-78
2021/03/23 11:10:00;;;;;;;15.13;6.80;;;;;;;8.22;61.14;101797.92;113322;1209;64397;-78
2021/03/23 11:12:28;;;;;;;10.60;6.05;;;;;;;8.20;61.19;101794.56;113270;1209;64508;-78
2021/03/23 11:14:58;;;;;;;13.47;6.80;;;;;;;8.22;61.34;101789.98;113288;1209;64406;-77
2021/03/23 11:17:28;;;;;;;10.10;4.57;;;;;;;8.27;60.80;101798.38;113292;1209;64407;-78
2021/03/23 11:20:03;;;;;;;10.90;6.50;;;;;;;8.29;60.96;101793.80;113655;1209;64471;-79
2021/03/23 11:22:35;;;;;;;15.65;7.30;;;;;;;8.32;61.28;101793.52;113987;1209;64489;-79
2021/03/23 11:25:04;;;;;;;13.03;7.73;;;;;;;8.31;60.89;101789.22;113874;1209;64432;-79
2021/03/23 11:27:31;;;;;;;22.43;8.07;;;;;;;8.35;60.88;101777.38;113707;1209;64817;-80
2021/03/23 11:29:59;;;;;;;12.53;6.33;;;;;;;8.35;60.46;101783.52;113419;1209;64407;-78
2021/03/23 11:32:27;;;;;;;19.35;7.30;;;;;;;8.34;60.92;101781.00;113530;1209;64435;-78
2021/03/23 11:34:54;;;;;;;14.67;7.20;;;;;;;8.36;61.00;101784.34;113630;1209;64390;-79
2021/03/23 11:37:22;;;;;;;14.00;6.30;;;;;;;8.36;60.78;101793.11;113386;1209;65631;-79
2021/03/23 11:39:52;;;;;;;11.23;6.00;;;;;;;8.35;60.70;101774.73;113347;1209;64374;-78
2021/03/23 11:42:48;;;;;;;20.10;8.65;;;;;;;8.34;61.25;101779.19;113148;1209;64458;-78
2021/03/23 11:45:38;;;;;;;14.13;7.97;;;;;;;8.33;60.63;101776.67;113051;1209;65610;-77
2021/03/23 11:48:12;;;;;;;17.90;7.67;;;;;;;8.32;61.24;101775.01;113030;1209;64381;-78
2021/03/23 11:50:41;;;;;;;;;;;;;;;8.32;60.69;101782.94;113229;1217;64381;-78
2021/03/23 11:53:08;;;;;;;16.57;7.23;;;;;;;8.26;60.29;101778.18;113138;1209;64311;-78
2021/03/23 11:55:38;;;;;;;13.27;6.87;;;;;;;8.24;60.48;101780.12;112854;1209;64400;-78
2021/03/23 11:58:05;;;;;;;15.23;7.87;;;;;;;8.30;61.06;101775.13;113316;1209;64406;-78